METAR AND TAF INFORMATION
METAR FOR ESKM
ADDS - METARS form results

(1704 UTC 14 December 2017)
Data provider http://aviationweather.gov/adds/metars/
 
METAR text: ESKM 141650Z AUTO 36002KT 9999 SCT012/// OVC034/// M01/M02 Q0982
Conditions at: ESKM (SILJAN/MORA , SE) observed 1650 UTC 14 December 2017
Temperature: -1.0°C (30°F)
Dewpoint: -2.0°C (28°F) [RH = 93%]
Pressure (altimeter): 29.00 inches Hg (982.0 mb)
Winds: from the N (360 degrees) at 2 MPH (2 knots; 1.0 m/s)
Visibility: 6 or more miles (10+ km)
Ceiling: 3400 feet AGL
Clouds: scattered clouds at 1200 feet AGL
overcast cloud deck at 3400 feet AGL
Weather: no significant weather observed at this time

METAR text: ESKM 141620Z AUTO 02003KT 9999 SCT011/// BKN013/// OVC030/// M01/M01 Q0982
Conditions at: ESKM (SILJAN/MORA , SE) observed 1620 UTC 14 December 2017
Temperature: -1.0°C (30°F)
Dewpoint: -1.0°C (30°F) [RH = 100%]
Pressure (altimeter): 29.00 inches Hg (982.0 mb)
Winds: from the NNE (20 degrees) at 3 MPH (3 knots; 1.6 m/s)
Visibility: 6 or more miles (10+ km)
Ceiling: 1300 feet AGL
Clouds: scattered clouds at 1100 feet AGL
broken clouds at 1300 feet AGL
overcast cloud deck at 3000 feet AGL
Weather: no significant weather observed at this time

 AIRPORT MAP

 RUNWAY INFORMATION
Runway 16 Runway length 5951 ft Runway width 148 ft
Runway elevation 631 ft Runway displaced threshold 0 ft Runway heading 161
Runway 34 Runway length 5951 ft Runway width 148 ft
Runway elevation 617 ft Runway displaced threshold 0 ft Runway heading 341

 AIRPORT FREQUENCIES
Type AFIS Name AFIS Frequency 129.85 MHZ

 AIRPORT NEAR NAVIGATION AIDS
Type NDB Name N Mora Frequency 403 KHZ



Powered by Virtual Airlines Manager [v2.6.2]

SI TIENES ALGUNA DUDA SOBRE LA WEB CONTACTA: webmaster@taca-virtual.org